Time;durP1;ratioP1;P1;durP2;ratioP2;P2;SDS_P1;SDS_P2;PMS_P1;PMS_P2;Temp;Humidity;BMP_temperature;BMP_pressure;BME280_temperature;BME280_humidity;BME280_pressure;Samples;Min_cycle;Max_cycle;Signal;HPM_P1;HPM_P2
2022/02/24 00:00:27;;;;;;;;;22.75;17.25;;;;;12.96;57.35;101771.84;2393381;28;46417;-82
2022/02/24 00:01:37;;;;;;;;;19.50;16.50;;;;;12.98;57.06;101781.44;2393473;28;45439;-87
2022/02/24 00:02:48;;;;;;;;;18.00;15.25;;;;;12.96;57.53;101774.47;2393358;28;45487;-86
2022/02/24 00:03:59;;;;;;;;;21.00;15.50;;;;;12.95;57.73;101765.69;2393668;28;45349;-85
2022/02/24 00:05:10;;;;;;;;;20.25;16.25;;;;;12.96;57.88;101770.06;2392655;28;46412;-83
2022/02/24 00:06:22;;;;;;;;;22.50;19.25;;;;;12.98;57.26;101775.31;2393403;28;45214;-83
2022/02/24 00:07:33;;;;;;;;;19.50;18.50;;;;;12.94;57.52;101761.31;2393348;28;45410;-83
2022/02/24 00:08:43;;;;;;;;;19.75;18.00;;;;;12.96;58.02;101762.16;2393565;28;45202;-80
2022/02/24 00:09:54;;;;;;;;;20.50;15.25;;;;;12.94;57.58;101761.31;2393360;28;46387;-81
2022/02/24 00:11:04;;;;;;;;;18.00;18.00;;;;;12.94;57.83;101753.38;2398060;28;44785;-81
2022/02/24 00:12:14;;;;;;;;;23.00;20.50;;;;;12.93;57.72;101755.19;2400557;28;45363;-81
2022/02/24 00:13:25;;;;;;;;;23.75;19.75;;;;;12.93;58.04;101754.31;2393368;28;45429;-81
2022/02/24 00:14:35;;;;;;;;;25.50;20.00;;;;;12.92;58.18;101749.94;2392819;28;45337;-81
2022/02/24 00:15:45;;;;;;;;;24.00;17.75;;;;;12.93;57.65;101751.69;2400492;28;44875;-81
2022/02/24 00:16:56;;;;;;;;;22.25;19.25;;;;;12.93;57.65;101754.31;2393163;28;46173;-81
2022/02/24 00:18:06;;;;;;;;;20.00;19.50;;;;;12.96;58.07;101758.66;2393393;28;45154;-81
2022/02/24 00:19:16;;;;;;;;;28.50;23.25;;;;;12.93;57.86;101749.03;2393215;28;46337;-81
2022/02/24 00:20:27;;;;;;;;;22.00;21.75;;;;;12.94;57.75;101750.75;2393231;28;44845;-81
2022/02/24 00:21:37;;;;;;;;;19.50;19.50;;;;;12.94;57.80;101742.84;2393258;28;46272;-81
2022/02/24 00:22:48;;;;;;;;;15.25;13.50;;;;;12.96;58.07;101743.69;2393500;28;44596;-81
2022/02/24 00:23:58;;;;;;;;;21.50;20.25;;;;;12.94;58.02;101746.34;2393275;28;46193;-81
2022/02/24 00:25:09;;;;;;;;;24.50;20.50;;;;;12.94;58.17;101734.91;2393179;28;44738;-82
2022/02/24 00:26:20;;;;;;;;;19.00;16.50;;;;;12.94;57.81;101740.19;2392733;28;46381;-82
2022/02/24 00:27:31;;;;;;;;;21.75;20.25;;;;;12.95;58.00;101736.66;2393215;28;45246;-82
2022/02/24 00:28:41;;;;;;;;;22.25;16.50;;;;;12.98;57.87;101736.59;2393133;28;45608;-81
2022/02/24 00:29:51;;;;;;;;;18.00;18.00;;;;;12.97;57.99;101731.34;2393425;28;44678;-79
2022/02/24 00:31:03;;;;;;;;;17.75;15.75;;;;;12.97;58.22;101734.84;2393226;28;45214;-79
2022/02/24 00:32:13;;;;;;;;;23.50;18.25;;;;;12.98;58.23;101733.94;2393484;28;45219;-78
2022/02/24 00:33:24;;;;;;;;;22.75;19.25;;;;;12.98;58.48;101727.81;2393174;28;45482;-85
2022/02/24 00:34:34;;;;;;;;;21.50;20.25;;;;;13.00;58.18;101731.25;2392720;28;45470;-85
2022/02/24 00:35:44;;;;;;;;;23.25;18.25;;;;;12.97;58.12;101726.94;2400766;28;46237;-84
2022/02/24 00:36:55;;;;;;;;;17.75;16.75;;;;;12.98;58.36;101731.31;2393457;28;44672;-80
2022/02/24 00:38:06;;;;;;;;;21.75;20.75;;;;;12.95;58.56;101723.47;2393163;28;45408;-80
2022/02/24 00:39:16;;;;;;;;;18.00;16.75;;;;;12.97;58.44;101724.28;2393267;28;45396;-80
2022/02/24 00:40:27;;;;;;;;;23.50;16.75;;;;;12.97;58.26;101726.06;2393290;28;45409;-80
2022/02/24 00:41:37;;;;;;;;;23.00;18.50;;;;;12.94;58.46;101727.00;2393285;28;44690;-80
2022/02/24 00:42:47;;;;;;;;;21.75;18.50;;;;;12.93;58.62;101727.94;2392908;28;46249;-80
2022/02/24 00:43:58;;;;;;;;;21.25;15.25;;;;;12.94;58.60;101722.59;2394765;28;45427;-80
2022/02/24 00:45:08;;;;;;;;;22.00;18.75;;;;;12.94;58.61;101713.81;2394156;28;46342;-80
2022/02/24 00:46:19;;;;;;;;;21.50;16.75;;;;;12.92;58.75;101710.34;2393199;28;45277;-80
2022/02/24 00:47:29;;;;;;;;;22.25;17.25;;;;;12.92;58.89;101713.00;2393111;28;45368;-80
2022/02/24 00:48:39;;;;;;;;;19.75;14.75;;;;;12.92;58.75;101713.00;2393314;28;45428;-80
2022/02/24 00:49:50;;;;;;;;;17.50;15.50;;;;;12.93;58.74;101712.09;2393031;28;45348;-80
2022/02/24 00:51:00;;;;;;;;;19.75;17.25;;;;;12.91;59.03;101714.75;2393336;28;45389;-80
2022/02/24 00:52:10;;;;;;;;;18.75;16.25;;;;;12.92;59.10;101720.91;2393123;28;45313;-82
2022/02/24 00:53:21;;;;;;;;;20.75;18.25;;;;;12.92;59.16;101718.28;2393071;28;45413;-83
2022/02/24 00:54:31;;;;;;;;;15.25;15.25;;;;;12.90;59.26;101710.41;2393157;28;46674;-83
2022/02/24 00:55:41;;;;;;;;;18.00;16.50;;;;;12.90;59.02;101701.63;2393930;28;44557;-83
2022/02/24 00:56:52;;;;;;;;;25.00;23.50;;;;;12.89;58.78;101698.09;2397554;28;46153;-85
2022/02/24 00:58:03;;;;;;;;;19.00;16.50;;;;;12.89;59.27;101703.38;2396453;28;44557;-85
2022/02/24 00:59:13;;;;;;;;;22.00;18.75;;;;;12.88;59.20;101701.69;2394551;28;45379;-85
2022/02/24 01:00:24;;;;;;;;;19.50;18.25;;;;;12.88;59.08;101695.53;2385648;28;45262;-85
2022/02/24 01:01:34;;;;;;;;;19.25;17.25;;;;;12.89;59.24;101692.00;2391665;28;45251;-85
2022/02/24 01:02:45;;;;;;;;;24.00;17.75;;;;;12.89;59.18;101686.72;2394954;28;45510;-85
2022/02/24 01:03:55;;;;;;;;;24.00;20.75;;;;;12.90;59.41;101693.69;2393826;28;47225;-85
2022/02/24 01:05:06;;;;;;;;;18.25;17.00;;;;;12.89;59.27;101695.47;2389239;28;45430;-85
2022/02/24 01:06:16;;;;;;;;;19.75;15.75;;;;;12.90;59.28;101694.56;2403586;28;47528;-85
2022/02/24 01:07:27;;;;;;;;;23.50;20.75;;;;;12.90;59.19;101691.94;2395208;28;45399;-85
2022/02/24 01:08:37;;;;;;;;;17.25;17.25;;;;;12.89;59.18;101681.44;2394619;28;45334;-85
2022/02/24 01:09:47;;;;;;;;;18.25;16.50;;;;;12.89;59.11;101681.44;2394836;28;45293;-85
2022/02/24 01:10:58;;;;;;;;;25.50;22.25;;;;;12.88;59.15;101671.78;2394391;28;46194;-85
2022/02/24 01:12:08;;;;;;;;;21.50;20.50;;;;;12.91;59.27;101679.63;2394526;28;44670;-85
2022/02/24 01:13:19;;;;;;;;;19.50;17.25;;;;;12.91;59.10;101679.63;2393450;28;47032;-85
2022/02/24 01:14:30;;;;;;;;;18.75;17.00;;;;;12.90;59.39;101676.09;2394395;28;45302;-85
2022/02/24 01:15:42;;;;;;;;;19.25;16.25;;;;;12.89;59.68;101679.63;2393523;28;46950;-85
2022/02/24 01:16:52;;;;;;;;;7.25;4.75;;;;;12.87;59.68;101684.09;2394349;28;45235;-84
2022/02/24 01:18:02;;;;;;;;;23.25;20.00;;;;;12.88;59.82;101688.47;2393835;28;47386;-85
2022/02/24 01:19:13;;;;;;;;;16.00;15.50;;;;;12.89;59.45;101684.91;2394270;28;45340;-85
2022/02/24 01:20:23;;;;;;;;;23.00;20.00;;;;;12.87;59.70;101683.22;2395065;28;46273;-85
2022/02/24 01:21:34;;;;;;;;;19.25;17.75;;;;;12.90;59.84;101685.78;2401363;28;45291;-84
2022/02/24 01:22:45;;;;;;;;;23.50;20.25;;;;;12.88;59.61;101663.88;2394192;28;45250;-85
2022/02/24 01:23:55;;;;;;;;;19.75;17.75;;;;;12.88;59.80;101653.31;2394693;28;45254;-85
2022/02/24 01:25:06;;;;;;;;;20.75;19.00;;;;;12.87;59.60;101656.84;2393350;28;46871;-85
2022/02/24 01:26:17;;;;;;;;;24.50;19.00;;;;;12.87;59.41;101656.84;2394223;28;44751;-84
2022/02/24 01:27:27;;;;;;;;;21.25;19.75;;;;;12.87;59.38;101667.41;2402909;28;45556;-85
2022/02/24 01:28:37;;;;;;;;;23.50;17.75;;;;;12.89;60.14;101678.81;2398227;28;44797;-85
2022/02/24 01:29:48;;;;;;;;;23.25;21.25;;;;;12.89;59.91;101670.88;2394500;28;46385;-85
2022/02/24 01:30:58;;;;;;;;;24.25;21.25;;;;;12.88;59.60;101663.88;2394721;28;44749;-83
2022/02/24 01:32:08;;;;;;;;;22.50;19.25;;;;;12.87;59.61;101657.72;2394411;28;45264;-83
2022/02/24 01:33:19;;;;;;;;;19.00;16.00;;;;;12.88;59.69;101658.59;2394552;28;45330;-83
2022/02/24 01:34:29;;;;;;;;;23.50;17.75;;;;;12.86;60.25;101656.00;2394268;28;45273;-82
2022/02/24 01:35:40;;;;;;;;;21.00;18.00;;;;;12.90;59.75;101656.75;2394246;28;45298;-81
2022/02/24 01:36:50;;;;;;;;;20.00;18.50;;;;;12.87;60.03;101648.94;2394407;28;45420;-81
2022/02/24 01:38:00;;;;;;;;;21.25;17.75;;;;;12.89;60.13;101655.06;2394710;28;45242;-81
2022/02/24 01:39:11;;;;;;;;;23.00;18.50;;;;;12.87;60.29;101647.16;2394339;28;45214;-81
2022/02/24 01:40:21;;;;;;;;;27.75;17.50;;;;;12.92;60.04;101654.94;2394511;28;44642;-81
2022/02/24 01:41:31;;;;;;;;;18.50;17.50;;;;;12.89;59.93;101644.50;2394359;28;46293;-81
2022/02/24 01:42:43;;;;;;;;;12.25;12.25;;;;;12.89;60.09;101649.78;2394483;28;45248;-81
2022/02/24 01:43:53;;;;;;;;;19.00;17.75;;;;;12.88;60.11;101645.41;2394335;28;45321;-81
2022/02/24 01:45:05;;;;;;;;;20.25;18.50;;;;;12.89;60.44;101649.78;2394230;28;44635;-81
2022/02/24 01:46:16;;;;;;;;;21.75;18.00;;;;;12.91;60.38;101658.50;2394497;28;46367;-80
2022/02/24 01:47:27;;;;;;;;;23.25;16.25;;;;;12.91;60.51;101656.72;2394496;28;45330;-80
2022/02/24 01:48:37;;;;;;;;;15.00;13.75;;;;;12.92;60.71;101657.59;2394338;28;45529;-84
2022/02/24 01:49:48;;;;;;;;;17.50;15.75;;;;;12.92;60.58;101660.22;2394455;28;44750;-86
2022/02/24 01:50:59;;;;;;;;;18.25;15.50;;;;;12.91;60.95;101658.50;2399882;28;45281;-85
2022/02/24 01:52:12;;;;;;;;;15.50;15.50;;;;;12.91;60.62;101664.63;2399882;28;45582;-85
2022/02/24 01:53:22;;;;;;;;;22.25;15.50;;;;;12.89;60.65;101661.16;2400180;28;45550;-86
2022/02/24 01:54:34;;;;;;;;;17.75;17.50;;;;;12.91;60.88;101666.41;2394601;28;45297;-87
2022/02/24 01:55:45;;;;;;;;;22.50;20.25;;;;;12.87;60.56;101656.84;2396055;28;47984;-86
2022/02/24 01:56:56;;;;;;;;;22.50;17.50;;;;;12.86;60.90;101657.75;2393479;28;45252;-81
2022/02/24 01:58:07;;;;;;;;;23.75;17.75;;;;;12.86;60.97;101655.13;2388870;28;45586;-83
2022/02/24 01:59:17;;;;;;;;;18.75;15.75;;;;;12.85;60.78;101650.75;2394516;28;45348;-83
2022/02/24 02:00:28;;;;;;;;;18.50;17.00;;;;;12.83;61.06;101642.88;2394184;28;45439;-83
2022/02/24 02:01:38;;;;;;;;;21.25;18.75;;;;;12.81;61.38;101635.03;2394133;28;45206;-82
2022/02/24 02:02:49;;;;;;;;;22.25;16.25;;;;;12.80;61.14;101629.78;2394229;28;45345;-81
2022/02/24 02:03:59;;;;;;;;;24.00;21.25;;;;;12.77;61.46;101622.81;2394059;28;45515;-82
2022/02/24 02:05:10;;;;;;;;;20.25;18.25;;;;;12.79;61.50;101625.41;2393814;28;45387;-87
2022/02/24 02:06:21;;;;;;;;;17.75;16.00;;;;;12.78;61.02;101619.28;2394116;28;45420;-86
2022/02/24 02:07:33;;;;;;;;;18.75;17.25;;;;;12.79;61.31;101606.97;2393618;28;45779;-86
2022/02/24 02:08:43;;;;;;;;;17.50;15.50;;;;;12.77;61.36;101601.72;2394291;28;45331;-86
2022/02/24 02:09:54;;;;;;;;;17.00;15.00;;;;;12.79;61.54;101599.88;2394160;28;45238;-85
2022/02/24 02:11:05;;;;;;;;;19.50;15.75;;;;;12.79;61.86;101597.25;2394049;28;45214;-83
2022/02/24 02:12:19;;;;;;;;;25.25;20.50;;;;;12.82;61.88;101596.28;2393990;28;46608;-83
2022/02/24 02:13:34;;;;;;;;;17.00;15.75;;;;;12.77;61.74;101593.78;2394131;28;45307;-83
2022/02/24 02:14:44;;;;;;;;;19.00;16.50;;;;;12.77;62.74;101596.44;2393528;28;46322;-84
2022/02/24 02:15:55;;;;;;;;;15.50;14.75;;;;;12.79;62.23;101591.13;2393708;28;44624;-84
2022/02/24 02:17:05;;;;;;;;;17.75;17.25;;;;;12.77;62.43;101587.66;2393513;28;46465;-85
2022/02/24 02:18:15;;;;;;;;;15.00;14.75;;;;;12.77;62.18;101591.16;2394292;28;44659;-85
2022/02/24 02:19:28;;;;;;;;;22.25;17.25;;;;;12.73;62.52;101573.69;2393961;28;46520;-85
2022/02/24 02:20:39;;;;;;;;;12.75;12.75;;;;;12.74;62.33;101577.22;2394326;28;45349;-85
2022/02/24 02:21:50;;;;;;;;;17.00;17.00;;;;;12.73;62.37;101580.75;2394204;28;46265;-85
2022/02/24 02:23:00;;;;;;;;;20.00;16.75;;;;;12.72;62.18;101587.78;2393441;28;45281;-84
2022/02/24 02:24:11;;;;;;;;;20.50;20.00;;;;;12.72;61.96;101590.41;2393740;28;46311;-84
2022/02/24 02:25:22;;;;;;;;;20.25;17.00;;;;;12.70;61.93;101590.47;2393898;28;45213;-85
2022/02/24 02:26:33;;;;;;;;;16.50;14.75;;;;;12.68;62.02;101587.03;2393055;28;47597;-84
2022/02/24 02:27:43;;;;;;;;;20.25;17.50;;;;;12.69;62.55;101585.25;2393595;28;44609;-85
2022/02/24 02:28:54;;;;;;;;;18.00;15.75;;;;;12.68;62.40;101588.78;2394086;28;45304;-85
2022/02/24 02:30:07;;;;;;;;;21.25;19.00;;;;;12.64;62.32;101588.03;2394250;28;45238;-84
2022/02/24 02:31:19;;;;;;;;;21.00;18.25;;;;;12.63;62.23;101583.63;2392172;28;48090;-84
2022/02/24 02:32:31;;;;;;;;;20.50;15.00;;;;;12.62;62.39;101591.59;2396034;28;45285;-83
2022/02/24 02:33:41;;;;;;;;;18.00;15.75;;;;;12.60;62.56;101586.34;2400332;28;45412;-83
2022/02/24 02:34:51;;;;;;;;;15.75;15.75;;;;;12.62;62.24;101587.16;2393968;28;45207;-82
2022/02/24 02:36:02;;;;;;;;;19.00;17.50;;;;;12.60;62.15;101581.94;2394008;28;45247;-83
2022/02/24 02:37:13;;;;;;;;;16.75;15.00;;;;;12.59;62.39;101579.38;2393509;28;45234;-83
2022/02/24 02:38:23;;;;;;;;;18.50;16.00;;;;;12.58;62.64;101578.50;2402584;28;46639;-83
2022/02/24 02:39:33;;;;;;;;;18.25;17.75;;;;;12.59;62.54;101579.38;2397215;28;45170;-81
2022/02/24 02:40:44;;;;;;;;;15.25;14.00;;;;;12.57;62.30;101575.88;2393704;28;45480;-81
2022/02/24 02:41:54;;;;;;;;;14.00;14.00;;;;;12.57;62.28;101581.16;2394272;28;45168;-81
2022/02/24 02:43:06;;;;;;;;;20.00;16.75;;;;;12.53;62.39;101580.41;2402267;28;46049;-85
2022/02/24 02:44:16;;;;;;;;;14.50;13.50;;;;;12.56;62.53;101572.41;2400280;28;45302;-86
2022/02/24 02:45:27;;;;;;;;;18.75;15.75;;;;;12.54;62.56;101576.88;2393416;28;45450;-85
2022/02/24 02:46:37;;;;;;;;;17.75;15.25;;;;;12.53;62.52;101569.84;2394299;28;45408;-85
2022/02/24 02:47:48;;;;;;;;;16.50;12.75;;;;;12.52;62.54;101568.09;2393927;28;45456;-83
2022/02/24 02:48:58;;;;;;;;;17.25;14.25;;;;;12.52;62.90;101568.09;2394072;28;45306;-83
2022/02/24 02:50:09;;;;;;;;;11.75;11.25;;;;;12.53;62.72;101575.13;2393787;28;45397;-83
2022/02/24 02:51:20;;;;;;;;;14.00;14.00;;;;;12.54;62.64;101574.22;2393892;28;44836;-83
2022/02/24 02:52:30;;;;;;;;;16.00;15.75;;;;;12.52;62.57;101570.75;2393924;28;46452;-83
2022/02/24 02:53:40;;;;;;;;;14.50;10.50;;;;;12.50;62.58;101564.66;2393296;28;45301;-82
2022/02/24 02:54:57;;;;;;;;;17.00;15.50;;;;;12.50;62.42;101564.66;2386329;28;47236;-83
2022/02/24 02:56:09;;;;;;;;;16.25;11.50;;;;;12.52;62.64;101560.19;2393578;28;45491;-81
2022/02/24 02:57:19;;;;;;;;;14.75;12.00;;;;;12.50;62.93;101559.38;2393586;28;45408;-81
2022/02/24 02:58:29;;;;;;;;;16.25;13.50;;;;;12.50;62.78;101559.38;2394093;28;45365;-81
2022/02/24 02:59:40;;;;;;;;;19.00;17.50;;;;;12.49;62.65;101552.41;2393663;28;46194;-80
2022/02/24 03:00:50;;;;;;;;;18.50;18.00;;;;;12.54;63.20;101565.44;2393496;28;45452;-87
2022/02/24 03:02:00;;;;;;;;;13.75;13.00;;;;;12.52;63.08;101554.91;2398342;28;46105;-86
2022/02/24 03:03:11;;;;;;;;;15.00;13.75;;;;;12.49;63.00;101555.03;2394030;28;45317;-86
2022/02/24 03:04:22;;;;;;;;;17.50;16.00;;;;;12.47;62.92;101546.31;2402453;28;48117;-87
2022/02/24 03:05:32;;;;;;;;;14.25;11.75;;;;;12.48;62.83;101555.91;2400087;28;45266;-87
2022/02/24 03:06:43;;;;;;;;;19.25;15.25;;;;;12.49;62.89;101552.41;2393809;28;46289;-85
2022/02/24 03:07:53;;;;;;;;;22.50;15.75;;;;;12.47;63.18;101551.56;2394083;28;45127;-85
2022/02/24 03:09:03;;;;;;;;;16.25;14.50;;;;;12.46;62.68;101552.47;2392914;28;47018;-85
2022/02/24 03:10:14;;;;;;;;;14.25;13.00;;;;;12.47;62.89;101548.94;2395221;28;45258;-84
2022/02/24 03:11:24;;;;;;;;;18.50;16.75;;;;;12.45;62.77;101545.44;2405747;28;46039;-85
2022/02/24 03:12:36;;;;;;;;;14.50;14.25;;;;;12.45;62.67;101541.06;2400230;28;45259;-85
2022/02/24 03:13:46;;;;;;;;;14.50;13.25;;;;;12.47;63.16;101548.94;2393538;28;45488;-84
2022/02/24 03:14:56;;;;;;;;;14.75;12.75;;;;;12.45;63.13;101546.31;2393830;28;45274;-82
2022/02/24 03:16:07;;;;;;;;;15.25;12.75;;;;;12.44;63.14;101543.75;2393691;28;45482;-82
2022/02/24 03:17:17;;;;;;;;;17.50;13.00;;;;;12.42;63.10;101535.03;2393890;28;44682;-81
2022/02/24 03:18:28;;;;;;;;;21.25;17.00;;;;;12.42;62.72;101537.66;2393624;28;46269;-88
2022/02/24 03:19:39;;;;;;;;;14.50;11.75;;;;;12.42;62.85;101535.03;2392683;28;45238;-88
2022/02/24 03:20:49;;;;;;;;;16.75;15.25;;;;;12.41;63.13;101534.16;2392666;28;47399;-87
2022/02/24 03:21:59;;;;;;;;;13.25;13.25;;;;;12.39;62.58;101535.97;2386455;28;44596;-83
2022/02/24 03:23:10;;;;;;;;;11.50;11.25;;;;;12.41;62.89;101538.53;2393248;28;45425;-83
2022/02/24 03:24:21;;;;;;;;;18.00;13.50;;;;;12.38;63.02;101534.22;2393899;28;45219;-83
2022/02/24 03:25:32;;;;;;;;;16.75;13.75;;;;;12.37;63.02;101535.16;2393683;28;45337;-82
2022/02/24 03:26:42;;;;;;;;;12.75;12.25;;;;;12.38;63.03;101528.94;2393929;28;45175;-82
2022/02/24 03:27:53;;;;;;;;;16.25;13.50;;;;;12.39;62.73;101541.25;2394449;28;45351;-82
2022/02/24 03:29:04;;;;;;;;;11.25;9.50;;;;;12.37;62.71;101536.00;2393670;28;45287;-84
2022/02/24 03:30:14;;;;;;;;;17.25;13.25;;;;;12.37;62.86;101536.00;2393393;28;45483;-84
2022/02/24 03:31:24;;;;;;;;;13.50;11.25;;;;;12.36;62.81;101531.63;2393734;28;45278;-83
2022/02/24 03:32:35;;;;;;;;;13.75;12.50;;;;;12.37;62.76;101532.50;2393581;28;45211;-83
2022/02/24 03:33:45;;;;;;;;;15.25;14.50;;;;;12.36;62.87;101531.63;2393841;28;45154;-81
2022/02/24 03:34:56;;;;;;;;;15.50;12.25;;;;;12.37;62.86;101529.88;2393616;28;46420;-81
2022/02/24 03:36:06;;;;;;;;;16.75;14.75;;;;;12.36;62.98;101521.09;2393680;28;45219;-80
2022/02/24 03:37:16;;;;;;;;;11.25;10.00;;;;;12.37;62.89;101521.97;2393541;28;45572;-80
2022/02/24 03:38:27;;;;;;;;;13.50;11.75;;;;;12.37;63.05;101521.97;2393645;28;45341;-80
2022/02/24 03:39:37;;;;;;;;;15.25;14.00;;;;;12.37;63.00;101520.16;2393331;28;45329;-80
2022/02/24 03:40:48;;;;;;;;;12.00;11.25;;;;;12.37;63.09;101516.69;2393738;28;44674;-81
2022/02/24 03:41:58;;;;;;;;;10.50;10.50;;;;;12.38;63.27;101513.13;2398731;28;46241;-80
2022/02/24 03:43:08;;;;;;;;;21.75;14.75;;;;;12.37;62.98;101511.41;2400866;28;45218;-80
2022/02/24 03:44:19;;;;;;;;;12.75;10.50;;;;;12.37;63.14;101517.53;2393614;28;46611;-80
2022/02/24 03:45:29;;;;;;;;;10.00;8.25;;;;;12.40;63.04;101527.13;2393638;28;45479;-80
2022/02/24 03:46:40;;;;;;;;;14.25;11.25;;;;;12.37;63.32;101517.53;2393510;28;45382;-80
2022/02/24 03:47:50;;;;;;;;;15.25;12.25;;;;;12.37;63.13;101514.91;2393664;28;45430;-80
2022/02/24 03:49:00;;;;;;;;;16.00;12.25;;;;;12.38;62.94;101521.91;2393668;28;45440;-79
2022/02/24 03:50:13;;;;;;;;;12.00;10.50;;;;;12.38;63.50;101523.69;2393241;28;45243;-79
2022/02/24 03:51:23;;;;;;;;;14.75;10.75;;;;;12.37;63.53;101516.69;2393597;28;45374;-79
2022/02/24 03:52:34;;;;;;;;;19.50;11.75;;;;;12.37;63.05;101511.41;2393560;28;45187;-79
2022/02/24 03:53:44;;;;;;;;;18.25;13.25;;;;;12.35;63.10;101508.81;2393636;28;45229;-79
2022/02/24 03:54:54;;;;;;;;;16.00;12.00;;;;;12.33;62.92;101508.00;2393574;28;45256;-79
2022/02/24 03:56:05;;;;;;;;;15.00;11.75;;;;;12.33;62.96;101507.13;2393470;28;45552;-79
2022/02/24 03:57:16;;;;;;;;;13.25;12.00;;;;;12.31;63.06;101507.19;2393502;28;44664;-79
2022/02/24 03:58:27;;;;;;;;;11.25;11.25;;;;;12.33;63.20;101501.84;2393496;28;46247;-79
2022/02/24 03:59:38;;;;;;;;;16.75;14.75;;;;;12.33;62.92;101494.81;2393297;28;44766;-79
2022/02/24 04:00:48;;;;;;;;;16.75;12.75;;;;;12.33;63.11;101492.19;2393147;28;46751;-79
2022/02/24 04:01:58;;;;;;;;;16.50;12.25;;;;;12.33;63.19;101489.53;2393642;28;45269;-79
2022/02/24 04:03:09;;;;;;;;;16.00;9.75;;;;;12.31;63.51;101485.22;2392726;28;47930;-79
2022/02/24 04:04:19;;;;;;;;;13.25;10.00;;;;;12.31;62.87;101486.09;2393086;28;45466;-79
2022/02/24 04:05:29;;;;;;;;;12.75;11.75;;;;;12.31;63.24;101482.59;2393267;28;45345;-79
2022/02/24 04:06:40;;;;;;;;;13.50;12.50;;;;;12.30;63.17;101484.34;2393668;28;45334;-81
2022/02/24 04:07:52;;;;;;;;;15.50;11.25;;;;;12.33;63.07;101488.66;2396832;28;46500;-80
2022/02/24 04:09:02;;;;;;;;;13.00;13.00;;;;;12.31;63.14;101480.81;2395406;28;45218;-80
2022/02/24 04:10:13;;;;;;;;;14.25;12.50;;;;;12.30;63.42;101480.88;2392831;28;46142;-80
2022/02/24 04:11:23;;;;;;;;;10.75;10.00;;;;;12.31;63.13;101474.69;2393603;28;45168;-80
2022/02/24 04:12:34;;;;;;;;;13.75;10.50;;;;;12.27;63.06;101474.75;2393267;28;46337;-80
2022/02/24 04:13:44;;;;;;;;;17.00;11.25;;;;;12.30;63.52;101479.06;2393275;28;45153;-80
2022/02/24 04:14:55;;;;;;;;;16.00;15.25;;;;;12.30;63.22;101475.59;2393364;28;45381;-80
2022/02/24 04:16:05;;;;;;;;;13.00;12.75;;;;;12.29;62.88;101472.09;2393528;28;45136;-82
2022/02/24 04:17:16;;;;;;;;;11.50;9.75;;;;;12.30;62.53;101471.16;2392659;28;47991;-82
2022/02/24 04:18:26;;;;;;;;;14.00;11.75;;;;;12.30;62.38;101471.16;2392934;28;44683;-82
2022/02/24 04:19:37;;;;;;;;;17.50;11.75;;;;;12.30;62.62;101476.44;2393294;28;45542;-82
2022/02/24 04:20:47;;;;;;;;;12.50;10.50;;;;;12.32;62.91;101482.53;2393618;28;45308;-82
2022/02/24 04:21:57;;;;;;;;;12.00;11.50;;;;;12.29;62.31;101480.00;2393223;28;46337;-82
2022/02/24 04:23:08;;;;;;;;;13.25;12.75;;;;;12.27;61.86;101473.91;2393446;28;45367;-82
2022/02/24 04:24:18;;;;;;;;;13.25;10.00;;;;;12.29;61.97;101476.50;2393306;28;45314;-81
2022/02/24 04:25:29;;;;;;;;;8.00;8.00;;;;;12.25;61.71;101473.94;2392853;28;44786;-80
2022/02/24 04:26:39;;;;;;;;;12.50;8.00;;;;;12.25;62.24;101475.69;2392797;28;45532;-79
2022/02/24 04:27:51;;;;;;;;;10.25;7.75;;;;;12.26;61.61;101472.16;2392993;28;45313;-79
2022/02/24 04:29:02;;;;;;;;;12.75;9.75;;;;;12.24;60.93;101474.00;2384113;28;45337;-79
2022/02/24 04:30:13;;;;;;;;;13.50;8.75;;;;;12.22;61.02;101479.28;2389607;28;44645;-79
2022/02/24 04:31:24;;;;;;;;;14.75;12.75;;;;;12.22;61.43;101467.91;2393341;28;45374;-79
2022/02/24 04:32:34;;;;;;;;;11.75;11.75;;;;;12.21;61.81;101466.16;2393327;28;44622;-79
2022/02/24 04:33:44;;;;;;;;;10.00;7.50;;;;;12.22;61.90;101473.19;2393288;28;45239;-79
2022/02/24 04:34:55;;;;;;;;;9.75;9.75;;;;;12.21;61.55;101472.31;2393387;28;44607;-79
2022/02/24 04:36:05;;;;;;;;;11.50;8.75;;;;;12.20;61.43;101473.19;2397136;28;45206;-79
2022/02/24 04:37:16;;;;;;;;;8.00;7.00;;;;;12.23;61.91;101477.53;2397790;28;45222;-79
2022/02/24 04:38:26;;;;;;;;;12.25;9.25;;;;;12.23;61.79;101472.25;2392708;28;46336;-78
2022/02/24 04:39:36;;;;;;;;;10.00;7.75;;;;;12.22;61.50;101476.66;2393394;28;44671;-78
2022/02/24 04:40:47;;;;;;;;;9.75;8.25;;;;;12.19;61.58;101474.13;2392981;28;46526;-79
2022/02/24 04:41:57;;;;;;;;;10.00;9.00;;;;;12.20;61.88;101467.09;2393129;28;45325;-80
2022/02/24 04:43:07;;;;;;;;;11.00;8.50;;;;;12.20;61.80;101461.81;2393015;28;46173;-82
2022/02/24 04:44:18;;;;;;;;;15.25;11.75;;;;;12.21;61.49;101467.03;2393518;28;45227;-82
2022/02/24 04:45:28;;;;;;;;;3.75;1.50;;;;;12.20;60.91;101461.81;2393050;28;46574;-80
2022/02/24 04:46:39;;;;;;;;;15.25;8.75;;;;;12.22;61.00;101470.53;2393365;28;44681;-80
2022/02/24 04:47:49;;;;;;;;;12.25;8.00;;;;;12.18;61.10;101460.97;2393241;28;45359;-80
2022/02/24 04:49:00;;;;;;;;;8.00;7.25;;;;;12.19;60.96;101462.72;2392961;28;45250;-80
2022/02/24 04:50:10;;;;;;;;;11.00;8.25;;;;;12.17;61.27;101467.16;2392955;28;45404;-80
2022/02/24 04:51:21;;;;;;;;;11.25;9.75;;;;;12.17;61.72;101469.81;2393301;28;44678;-79
2022/02/24 04:52:32;;;;;;;;;12.50;9.00;;;;;12.17;61.29;101477.72;2393186;28;45236;-79
2022/02/24 04:53:43;;;;;;;;;9.25;7.75;;;;;12.17;61.31;101469.81;2393280;28;45234;-79
2022/02/24 04:54:53;;;;;;;;;9.75;8.00;;;;;12.16;61.19;101463.66;2393087;28;46369;-79
2022/02/24 04:56:04;;;;;;;;;7.50;7.00;;;;;12.17;61.01;101467.16;2393330;28;45230;-79
2022/02/24 04:57:14;;;;;;;;;11.00;8.50;;;;;12.16;61.59;101466.28;2392356;28;45406;-79
2022/02/24 04:58:24;;;;;;;;;13.50;8.25;;;;;12.15;61.14;101467.19;2384121;28;45247;-79
2022/02/24 04:59:35;;;;;;;;;7.75;7.25;;;;;12.18;61.43;101468.88;2390016;28;45274;-79
2022/02/24 05:00:45;;;;;;;;;8.50;8.00;;;;;12.17;61.40;101470.66;2393300;28;45224;-78
2022/02/24 05:01:56;;;;;;;;;7.75;6.25;;;;;12.15;61.16;101465.44;2395675;28;45541;-78
2022/02/24 05:03:06;;;;;;;;;11.50;7.50;;;;;12.13;61.06;101467.25;2393847;28;45274;-78
2022/02/24 05:04:17;;;;;;;;;9.00;6.50;;;;;12.14;60.79;101463.72;2392954;28;46189;-81
2022/02/24 05:05:27;;;;;;;;;9.75;7.00;;;;;12.14;60.98;101457.56;2392877;28;45218;-82
2022/02/24 05:06:37;;;;;;;;;9.00;7.75;;;;;12.12;61.29;101460.19;2393158;28;45480;-81
2022/02/24 05:07:48;;;;;;;;;10.00;8.00;;;;;12.15;61.22;101467.19;2393157;28;45241;-81
2022/02/24 05:08:58;;;;;;;;;8.25;6.75;;;;;12.13;61.02;101455.84;2393047;28;46267;-81
2022/02/24 05:10:08;;;;;;;;;12.75;10.75;;;;;12.13;60.88;101461.97;2392859;28;45175;-82
2022/02/24 05:11:19;;;;;;;;;11.25;8.00;;;;;12.11;60.75;101452.34;2393057;28;45269;-82
2022/02/24 05:12:29;;;;;;;;;9.00;8.75;;;;;12.10;60.84;101456.75;2392797;28;45298;-81
2022/02/24 05:13:40;;;;;;;;;8.75;7.25;;;;;12.11;60.35;101453.22;2392784;28;45330;-82
2022/02/24 05:14:50;;;;;;;;;10.25;7.25;;;;;12.08;60.89;101450.66;2393286;28;45339;-82
2022/02/24 05:16:00;;;;;;;;;6.75;6.75;;;;;12.09;61.20;101449.78;2392656;28;46283;-80
2022/02/24 05:17:11;;;;;;;;;9.00;6.75;;;;;12.07;60.73;101446.31;2393189;28;44675;-80
2022/02/24 05:18:21;;;;;;;;;8.00;8.00;;;;;12.07;60.97;101446.31;2393100;28;45301;-80
2022/02/24 05:19:31;;;;;;;;;8.75;7.25;;;;;12.08;61.01;101450.66;2392215;28;45250;-80
2022/02/24 05:20:42;;;;;;;;;8.50;7.75;;;;;12.09;61.09;101452.41;2392329;28;45362;-79
2022/02/24 05:21:52;;;;;;;;;4.50;3.00;;;;;12.06;60.88;101452.47;2393177;28;45251;-85